createdAt,value
2022-11-01T00:04:15.510Z,32.70
2022-11-01T00:09:18.257Z,32.80
2022-11-01T00:14:20.331Z,32.80
2022-11-01T00:19:22.456Z,32.80
2022-11-01T00:29:27.231Z,32.90
2022-11-01T00:34:29.369Z,33.10
2022-11-01T00:39:31.943Z,33.10
2022-11-01T00:44:33.969Z,33.10
2022-11-01T00:49:36.025Z,33.50
2022-11-01T00:54:38.087Z,33.20
2022-11-01T00:59:41.088Z,33.30
2022-11-01T01:04:43.574Z,33.40
2022-11-01T01:09:45.655Z,34.00
2022-11-01T01:14:47.854Z,33.40
2022-11-01T01:19:50.057Z,33.50
2022-11-01T01:24:52.135Z,33.70
2022-11-01T01:29:54.530Z,33.70
2022-11-01T01:34:56.616Z,33.80
2022-11-01T01:39:59.115Z,33.60
2022-11-01T01:45:04.160Z,33.70
2022-11-01T01:50:26.885Z,33.60
2022-11-01T01:55:41.756Z,33.60
2022-11-01T02:00:44.780Z,33.60
2022-11-01T02:05:54.806Z,33.50
2022-11-01T02:11:00.592Z,33.50
2022-11-01T02:16:08.310Z,33.70
2022-11-01T02:21:31.670Z,33.30
2022-11-01T02:27:01.511Z,33.30
2022-11-01T02:32:18.515Z,33.30
2022-11-01T02:37:48.846Z,33.30
2022-11-01T02:42:57.198Z,33.60
2022-11-01T02:48:00.861Z,33.50
2022-11-01T02:53:04.233Z,33.70
2022-11-01T02:58:12.314Z,33.80
2022-11-01T03:03:31.493Z,34.00
2022-11-01T03:08:37.768Z,34.00
2022-11-01T03:13:57.997Z,34.20
2022-11-01T03:19:18.578Z,34.20
2022-11-01T03:24:24.737Z,34.20
2022-11-01T03:29:30.862Z,34.20
2022-11-01T03:34:36.471Z,34.40
2022-11-01T03:39:46.720Z,34.40
2022-11-01T03:44:54.105Z,34.60
2022-11-01T03:50:17.349Z,35.10
2022-11-01T03:55:21.047Z,35.00
2022-11-01T04:00:29.395Z,34.80
2022-11-01T04:05:33.387Z,34.90
2022-11-01T04:10:35.874Z,35.00
2022-11-01T04:15:56.414Z,35.00
2022-11-01T04:21:01.299Z,35.10
2022-11-01T04:26:05.184Z,35.20
2022-11-01T04:31:07.770Z,35.40
2022-11-01T04:36:09.958Z,36.10
2022-11-01T04:41:12.102Z,35.70
2022-11-01T04:46:14.260Z,35.20
2022-11-01T04:51:16.546Z,35.60
2022-11-01T04:56:18.656Z,35.70
2022-11-01T05:01:20.865Z,36.00
2022-11-01T05:06:23.269Z,36.10
2022-11-01T05:11:25.750Z,36.50
2022-11-01T05:16:28.829Z,36.00
2022-11-01T05:21:30.825Z,37.30
2022-11-01T05:26:34.056Z,36.30
2022-11-01T05:31:36.899Z,36.30
2022-11-01T05:36:39.425Z,36.40
2022-11-01T05:41:41.849Z,36.50
2022-11-01T05:46:43.905Z,36.50
2022-11-01T05:51:45.995Z,36.70
2022-11-01T05:56:48.190Z,36.60
2022-11-01T06:01:50.656Z,36.60
2022-11-01T06:06:52.879Z,36.60
2022-11-01T06:11:55.003Z,36.60
2022-11-01T06:16:57.158Z,36.60
2022-11-01T06:21:59.315Z,37.30
2022-11-01T06:27:01.403Z,36.50
2022-11-01T06:32:04.752Z,36.40
2022-11-01T06:37:06.879Z,36.30
2022-11-01T06:42:10.120Z,36.30
2022-11-01T06:47:13.156Z,36.40
2022-11-01T06:52:15.263Z,36.40
2022-11-01T06:57:17.377Z,36.70
2022-11-01T07:07:24.029Z,36.60
2022-11-01T07:12:26.120Z,36.40
2022-11-01T07:17:28.170Z,36.80
2022-11-01T07:22:30.239Z,36.50
2022-11-01T07:27:36.122Z,36.70
2022-11-01T07:32:39.953Z,36.60
2022-11-01T07:37:42.244Z,36.60
2022-11-01T07:42:45.734Z,36.50
2022-11-01T07:47:47.991Z,36.60
2022-11-01T07:53:03.323Z,36.60
2022-11-01T07:58:06.202Z,36.70
2022-11-01T08:03:14.418Z,36.40
2022-11-01T08:08:16.852Z,36.50
2022-11-01T08:13:24.001Z,36.40
2022-11-01T08:18:26.070Z,36.50
2022-11-01T08:23:28.162Z,36.20
2022-11-01T08:28:30.348Z,36.20
2022-11-01T08:33:32.534Z,35.90
2022-11-01T08:38:34.617Z,35.80
2022-11-01T08:43:40.470Z,35.60
2022-11-01T08:48:43.194Z,35.50
2022-11-01T08:53:45.399Z,35.50
2022-11-01T08:58:50.662Z,35.30
2022-11-01T09:03:57.743Z,35.50
2022-11-01T09:09:00.244Z,35.50
2022-11-01T09:14:02.746Z,35.50
2022-11-01T09:19:04.866Z,35.40
2022-11-01T09:24:07.009Z,34.40
2022-11-01T09:29:09.558Z,32.10
2022-11-01T09:34:12.062Z,30.00
2022-11-01T09:39:16.395Z,30.90
2022-11-01T09:44:25.330Z,28.70
2022-11-01T09:49:33.488Z,26.30
2022-11-01T09:59:58.836Z,26.50
2022-11-01T10:05:26.765Z,27.80
2022-11-01T10:16:07.995Z,26.10
2022-11-01T10:21:15.082Z,24.80
2022-11-01T10:26:30.894Z,25.30
2022-11-01T10:31:39.216Z,24.20
2022-11-01T10:36:46.675Z,25.40
2022-11-01T10:41:51.320Z,25.30
2022-11-01T10:46:54.370Z,23.40
2022-11-01T10:52:02.153Z,24.10
2022-11-01T10:57:10.801Z,23.90
2022-11-01T11:02:24.052Z,23.60
2022-11-01T11:07:30.729Z,23.10
2022-11-01T11:12:34.463Z,22.40
2022-11-01T11:17:43.501Z,22.70
2022-11-01T11:22:45.672Z,21.00
2022-11-01T11:27:49.969Z,21.40
2022-11-01T11:32:53.662Z,20.60
2022-11-01T11:37:59.105Z,20.70
2022-11-01T11:43:31.099Z,19.80
2022-11-01T11:48:33.255Z,18.70
2022-11-01T11:53:35.340Z,19.40
2022-11-01T11:58:48.862Z,18.90
2022-11-01T12:08:59.947Z,18.40
2022-11-01T12:14:04.910Z,18.40
2022-11-01T12:19:23.700Z,16.60
2022-11-01T12:24:43.880Z,17.20
2022-11-01T12:29:54.970Z,17.50
2022-11-01T12:35:02.388Z,17.20
2022-11-01T12:40:28.468Z,14.40
2022-11-01T12:45:49.986Z,15.70
2022-11-01T12:51:11.543Z,14.40
2022-11-01T12:56:13.866Z,15.30
2022-11-01T13:01:26.386Z,14.90
2022-11-01T13:06:34.420Z,13.90
2022-11-01T13:12:04.725Z,14.30
2022-11-01T13:17:35.339Z,13.50
2022-11-01T13:22:59.371Z,10.60
2022-11-01T13:33:49.854Z,11.50
2022-11-01T13:39:22.196Z,11.20
2022-11-01T13:44:28.567Z,10.80
2022-11-01T13:49:36.244Z,11.00
2022-11-01T13:55:18.478Z,10.40
2022-11-01T14:00:44.156Z,10.40
2022-11-01T14:05:48.369Z,10.20
2022-11-01T14:10:51.191Z,10.90
2022-11-01T14:15:57.118Z,10.50
2022-11-01T14:21:29.173Z,10.50
2022-11-01T14:26:46.369Z,10.40
2022-11-01T14:31:52.368Z,10.50
2022-11-01T14:36:57.560Z,10.60
2022-11-01T14:42:02.675Z,10.90
2022-11-01T14:47:23.615Z,11.30
2022-11-01T14:52:45.563Z,11.30
2022-11-01T14:57:49.102Z,11.50
2022-11-01T15:02:51.936Z,12.00
2022-11-01T15:08:01.203Z,12.40
2022-11-01T15:13:04.762Z,13.10
2022-11-01T15:18:19.085Z,13.50
2022-11-01T15:23:27.087Z,13.20
2022-11-01T15:28:42.723Z,13.30
2022-11-01T15:33:59.937Z,14.20
2022-11-01T15:39:04.779Z,13.60
2022-11-01T15:44:18.117Z,13.90
2022-11-01T15:49:29.495Z,14.10
2022-11-01T15:55:10.186Z,14.50
2022-11-01T16:00:22.156Z,14.70
2022-11-01T16:05:29.970Z,14.60
2022-11-01T16:10:32.162Z,15.10
2022-11-01T16:15:34.984Z,15.00
2022-11-01T16:20:43.182Z,15.30
2022-11-01T16:25:45.294Z,15.40
2022-11-01T16:30:55.317Z,15.60
2022-11-01T16:36:03.205Z,16.30
2022-11-01T16:41:27.436Z,16.30
2022-11-01T16:46:30.527Z,16.30
2022-11-01T16:51:33.336Z,16.50
2022-11-01T16:56:41.382Z,17.00
2022-11-01T17:01:45.919Z,17.00
2022-11-01T17:06:48.777Z,17.30
2022-11-01T17:11:53.460Z,17.70
2022-11-01T17:16:56.403Z,17.20
2022-11-01T17:22:06.774Z,17.50
2022-11-01T17:27:09.829Z,18.30
2022-11-01T17:32:12.609Z,18.20
2022-11-01T17:37:17.003Z,18.20
2022-11-01T17:42:19.071Z,18.10
2022-11-01T17:47:21.203Z,19.50
2022-11-01T17:52:23.375Z,19.00
2022-11-01T17:57:25.885Z,18.80
2022-11-01T18:02:28.170Z,18.80
2022-11-01T18:07:38.565Z,18.70
2022-11-01T18:12:47.921Z,19.10
2022-11-01T18:18:03.611Z,20.20
2022-11-01T18:23:11.684Z,19.50
2022-11-01T18:28:26.250Z,20.50
2022-11-01T18:33:40.135Z,20.10
2022-11-01T18:38:52.832Z,20.20
2022-11-01T18:43:54.971Z,20.00
2022-11-01T18:49:02.026Z,20.10
2022-11-01T18:54:10.875Z,20.20
2022-11-01T18:59:16.313Z,20.50
2022-11-01T19:04:27.116Z,20.30
2022-11-01T19:09:30.040Z,20.60
2022-11-01T19:14:32.827Z,20.50
2022-11-01T19:19:36.521Z,20.70
2022-11-01T19:24:39.928Z,20.80
2022-11-01T19:29:42.098Z,21.10
2022-11-01T19:34:44.269Z,21.30
2022-11-01T19:39:47.060Z,21.50
2022-11-01T19:44:49.089Z,21.60
2022-11-01T19:49:51.219Z,22.00
2022-11-01T19:54:54.308Z,21.60
2022-11-01T20:00:20.870Z,21.90
2022-11-01T20:05:25.587Z,23.00
2022-11-01T20:10:31.132Z,22.30
2022-11-01T20:15:33.299Z,22.30
2022-11-01T20:20:35.505Z,22.90
2022-11-01T20:25:38.346Z,22.90
2022-11-01T20:35:43.124Z,22.90
2022-11-01T20:40:45.370Z,22.80
2022-11-01T20:45:47.799Z,23.30
2022-11-01T20:50:49.880Z,23.10
2022-11-01T20:55:52.158Z,24.00
2022-11-01T21:00:54.532Z,23.70
2022-11-01T21:05:56.868Z,24.00
2022-11-01T21:11:20.472Z,24.20
2022-11-01T21:16:30.452Z,24.60
2022-11-01T21:21:34.175Z,23.50
2022-11-01T21:26:36.836Z,23.60
2022-11-01T21:31:39.220Z,24.10
2022-11-01T21:36:47.841Z,24.40
2022-11-01T21:41:52.490Z,24.20
2022-11-01T21:47:14.653Z,24.60
2022-11-01T21:52:20.359Z,25.50
2022-11-01T21:57:22.515Z,25.30
2022-11-01T22:02:24.675Z,25.30
2022-11-01T22:07:26.863Z,25.90
2022-11-01T22:12:28.973Z,25.80
2022-11-01T22:17:31.385Z,25.80
2022-11-01T22:22:33.467Z,25.80
2022-11-01T22:27:36.346Z,25.70
2022-11-01T22:32:38.335Z,26.50
2022-11-01T22:37:41.048Z,26.20
2022-11-01T22:42:43.133Z,26.10
2022-11-01T22:47:46.415Z,26.50
2022-11-01T22:52:48.683Z,26.90
2022-11-01T22:57:54.296Z,26.50
2022-11-01T23:03:10.240Z,26.00
2022-11-01T23:08:27.633Z,26.10
2022-11-01T23:13:54.937Z,27.00
2022-11-01T23:19:01.146Z,26.50
2022-11-01T23:24:03.260Z,27.20
2022-11-01T23:29:05.480Z,26.80
2022-11-01T23:34:10.620Z,26.90
2022-11-01T23:39:14.506Z,27.50
2022-11-01T23:44:29.877Z,27.50
2022-11-01T23:49:34.462Z,26.80
2022-11-01T23:54:42.850Z,27.30
2022-11-01T23:59:45.476Z,27.20
